Time;durP1;ratioP1;P1;durP2;ratioP2;P2;SDS_P1;SDS_P2;PMS_P1;PMS_P2;Temp;Humidity;BMP_temperature;BMP_pressure;BME280_temperature;BME280_humidity;BME280_pressure;Samples;Min_cycle;Max_cycle;Signal;HPM_P1;HPM_P2
2022/04/23 00:01:42;;;;;;;;;7.75;7.25;;;;;21.33;36.74;99406.19;5077444;28;45240;-60
2022/04/23 00:04:09;;;;;;;;;9.25;8.00;;;;;21.30;36.25;99405.47;5077513;28;45387;-58
2022/04/23 00:06:35;;;;;;;;;11.00;9.00;;;;;21.29;36.25;99411.69;5077187;28;45429;-58
2022/04/23 00:09:00;;;;;;;;;9.00;9.00;;;;;21.29;36.63;99411.69;5077204;28;45380;-57
2022/04/23 00:11:26;;;;;;;;;7.75;7.75;;;;;21.29;36.44;99402.94;5077491;28;45308;-60
2022/04/23 00:13:51;;;;;;;;;12.50;11.00;;;;;21.27;36.50;99408.34;5077390;28;45267;-62
2022/04/23 00:16:16;;;;;;;;;8.00;8.00;;;;;21.28;36.27;99402.09;5075887;28;45306;-60
2022/04/23 00:18:42;;;;;;;;;8.50;8.50;;;;;21.29;36.27;99410.84;5076996;28;45444;-57
2022/04/23 00:21:08;;;;;;;;;9.00;9.00;;;;;21.27;36.40;99395.16;5077187;28;45318;-57
2022/04/23 00:23:34;;;;;;;;;8.00;8.00;;;;;21.28;36.41;99398.63;5077268;28;45399;-61
2022/04/23 00:26:00;;;;;;;;;10.00;7.25;;;;;21.28;36.35;99396.84;5076982;28;46502;-58
2022/04/23 00:28:26;;;;;;;;;8.75;8.75;;;;;21.28;36.44;99391.56;5077392;28;45379;-58
2022/04/23 00:30:52;;;;;;;;;10.00;10.00;;;;;21.28;36.40;99396.00;5077117;28;45293;-59
2022/04/23 00:33:20;;;;;;;;;8.75;8.75;;;;;21.26;36.12;99393.50;5077069;28;45327;-57
2022/04/23 00:35:48;;;;;;;;;11.00;9.75;;;;;21.27;36.10;99395.16;5076773;28;47307;-58
2022/04/23 00:38:15;;;;;;;;;8.75;8.00;;;;;21.28;36.34;99388.09;5076827;28;45988;-60
2022/04/23 00:40:40;;;;;;;;;7.00;7.00;;;;;21.27;36.33;99375.91;5058679;28;45600;-58
2022/04/23 00:43:10;;;;;;;;;8.25;8.00;;;;;21.27;36.48;99374.09;5077050;28;45165;-63
2022/04/23 00:45:36;;;;;;;;;9.00;8.00;;;;;21.27;36.73;99376.72;5076545;28;46170;-61
2022/04/23 00:48:01;;;;;;;;;11.00;9.00;;;;;21.27;36.44;99371.44;5076577;28;45542;-63
2022/04/23 00:50:27;;;;;;;;;8.00;8.00;;;;;21.27;36.71;99365.34;5077185;28;45299;-58
2022/04/23 00:53:03;;;;;;;;;8.75;8.75;;;;;21.26;36.05;99364.50;5076871;28;45578;-58
2022/04/23 00:55:32;;;;;;;;;10.25;10.25;;;;;21.24;36.57;99361.16;5076789;28;46309;-61
2022/04/23 00:57:59;;;;;;;;;8.75;8.00;;;;;21.26;36.52;99358.41;5058793;28;45941;-58
2022/04/23 01:00:25;;;;;;;;;8.00;8.00;;;;;21.25;36.55;99351.47;5076652;28;45322;-59
2022/04/23 01:02:53;;;;;;;;;9.50;9.50;;;;;21.25;36.43;99352.28;5076772;28;45417;-60
2022/04/23 01:05:19;;;;;;;;;10.75;9.00;;;;;21.25;36.08;99351.47;5076458;28;46942;-61
2022/04/23 01:07:44;;;;;;;;;9.50;9.00;;;;;21.25;36.50;99341.75;5076419;28;45212;-58
2022/04/23 01:10:11;;;;;;;;;8.75;8.50;;;;;21.23;36.13;99338.41;5076569;28;45260;-58
2022/04/23 01:12:38;;;;;;;;;7.00;7.00;;;;;21.23;36.56;99337.56;5076476;28;45383;-59
2022/04/23 01:15:11;;;;;;;;;10.25;9.00;;;;;21.24;36.43;99340.06;5076236;28;45402;-58
2022/04/23 01:17:38;;;;;;;;;9.00;9.00;;;;;21.25;36.62;99339.13;5076384;28;45360;-58
2022/04/23 01:20:12;;;;;;;;;9.25;9.25;;;;;21.24;36.58;99337.44;5076464;28;45489;-57
2022/04/23 01:22:39;;;;;;;;;10.00;10.00;;;;;21.23;36.04;99341.03;5075368;28;45542;-60
2022/04/23 01:25:06;;;;;;;;;8.50;7.50;;;;;21.24;36.19;99340.06;5076119;28;46014;-60
2022/04/23 01:27:33;;;;;;;;;8.25;8.00;;;;;21.24;35.96;99331.34;5076721;28;45878;-59
2022/04/23 01:29:58;;;;;;;;;9.00;9.00;;;;;21.24;36.02;99340.06;5080219;28;45413;-60
2022/04/23 01:32:24;;;;;;;;;8.50;7.75;;;;;21.20;36.14;99333.41;5080058;28;45212;-58
2022/04/23 01:34:49;;;;;;;;;8.25;8.25;;;;;21.24;36.16;99333.97;5079510;28;46903;-57
2022/04/23 01:37:17;;;;;;;;;9.75;8.50;;;;;21.23;36.63;99333.13;5079576;28;45397;-59
2022/04/23 01:39:44;;;;;;;;;5.75;4.50;;;;;21.23;36.18;99338.41;5079762;28;45376;-58
2022/04/23 01:42:09;;;;;;;;;10.75;9.00;;;;;21.23;35.78;99338.41;5060956;28;45284;-65
2022/04/23 01:44:34;;;;;;;;;10.25;9.00;;;;;21.24;36.52;99331.34;5079340;28;45988;-62
2022/04/23 01:47:00;;;;;;;;;9.75;9.75;;;;;21.23;36.31;99333.13;5079646;28;45252;-60
2022/04/23 01:49:25;;;;;;;;;9.75;7.50;;;;;21.23;36.34;99322.59;5079445;28;45346;-58
2022/04/23 01:51:50;;;;;;;;;10.50;9.50;;;;;21.23;36.03;99324.41;5079526;28;45560;-61
2022/04/23 01:54:16;;;;;;;;;11.25;10.00;;;;;21.20;36.26;99320.22;5079159;28;49203;-63
2022/04/23 01:56:41;;;;;;;;;9.50;9.00;;;;;21.23;36.45;99324.41;5079393;28;45394;-63
2022/04/23 01:59:06;;;;;;;;;8.00;8.00;;;;;21.23;36.19;99319.94;5079374;28;45307;-62
2022/04/23 02:01:32;;;;;;;;;11.00;11.00;;;;;21.23;36.30;99314.69;5079894;28;45595;-58
2022/04/23 02:03:57;;;;;;;;;14.00;11.75;;;;;21.20;36.30;99311.47;5078875;28;53585;-61
2022/04/23 02:06:23;;;;;;;;;8.50;8.50;;;;;21.22;35.97;99317.47;5060928;28;45328;-58
2022/04/23 02:08:49;;;;;;;;;11.50;10.00;;;;;21.23;36.23;99319.13;5079274;28;45742;-58
2022/04/23 02:11:15;;;;;;;;;11.25;9.50;;;;;21.21;35.94;99319.25;5079066;28;45169;-62
2022/04/23 02:13:40;;;;;;;;;10.75;9.25;;;;;21.23;36.04;99319.13;5079119;28;46370;-58
2022/04/23 02:16:05;;;;;;;;;8.75;8.75;;;;;21.20;35.95;99309.69;5079240;28;45796;-58
2022/04/23 02:18:32;;;;;;;;;9.50;9.50;;;;;21.22;36.47;99304.28;5079393;28;45229;-63
2022/04/23 02:20:58;;;;;;;;;7.75;7.75;;;;;21.20;36.06;99301.78;5078518;28;45379;-58
2022/04/23 02:23:23;;;;;;;;;8.50;8.50;;;;;21.21;36.40;99303.47;5077967;28;45435;-60
2022/04/23 02:25:49;;;;;;;;;11.75;9.50;;;;;21.23;36.63;99305.94;5078681;28;45472;-58
2022/04/23 02:28:14;;;;;;;;;9.00;7.50;;;;;21.21;35.95;99300.81;5078929;28;45423;-57
2022/04/23 02:30:39;;;;;;;;;8.25;8.00;;;;;21.21;36.21;99300.81;5079034;28;45635;-58
2022/04/23 02:33:05;;;;;;;;;7.75;7.75;;;;;21.21;36.28;99302.59;5078898;28;46132;-58
2022/04/23 02:35:34;;;;;;;;;9.75;9.00;;;;;21.21;36.47;99303.47;5078829;28;45346;-58
2022/04/23 02:38:01;;;;;;;;;11.25;9.25;;;;;21.20;35.98;99304.41;5078828;28;45238;-58
2022/04/23 02:40:28;;;;;;;;;10.00;8.25;;;;;21.22;36.25;99299.00;5077941;28;45505;-61
2022/04/23 02:42:54;;;;;;;;;11.75;10.50;;;;;21.19;36.16;99291.34;5077497;28;45408;-60
2022/04/23 02:45:20;;;;;;;;;10.00;10.00;;;;;21.21;35.89;99297.34;5060472;28;45438;-58
2022/04/23 02:47:45;;;;;;;;;9.50;9.00;;;;;21.21;36.39;99294.69;5078630;28;45284;-58
2022/04/23 02:50:11;;;;;;;;;12.67;12.67;;;;;21.20;36.05;99285.13;5078886;28;45374;-60
2022/04/23 02:52:40;;;;;;;;;10.75;8.75;;;;;21.20;36.22;99285.97;5078326;28;46206;-59
2022/04/23 02:55:06;;;;;;;;;11.75;10.00;;;;;21.20;36.50;99282.47;5078757;28;45886;-60
2022/04/23 02:57:31;;;;;;;;;10.50;10.25;;;;;21.20;36.24;99275.44;5078467;28;45244;-61
2022/04/23 02:59:56;;;;;;;;;8.00;6.25;;;;;21.19;36.51;99273.75;5078641;28;45535;-61
2022/04/23 03:02:22;;;;;;;;;10.75;8.75;;;;;21.19;36.52;99268.50;5078249;28;45947;-58
2022/04/23 03:04:47;;;;;;;;;12.00;9.00;;;;;21.19;35.99;99265.00;5078123;28;45298;-58
2022/04/23 03:07:12;;;;;;;;;11.00;10.00;;;;;21.20;35.88;99271.94;5078248;28;45794;-58
2022/04/23 03:09:38;;;;;;;;;11.25;10.25;;;;;21.19;36.39;99273.75;5078326;28;45314;-58
2022/04/23 03:12:03;;;;;;;;;10.00;10.00;;;;;21.19;36.45;99270.28;5078203;28;45969;-63
2022/04/23 03:14:29;;;;;;;;;10.75;10.00;;;;;21.18;36.46;99277.34;5078191;28;45483;-61
2022/04/23 03:16:54;;;;;;;;;9.50;9.50;;;;;21.18;36.25;99266.81;5078228;28;45355;-58
2022/04/23 03:19:20;;;;;;;;;9.25;9.25;;;;;21.19;36.16;99265.00;5077861;28;47572;-62
2022/04/23 03:21:45;;;;;;;;;10.00;8.75;;;;;21.17;35.96;99260.69;5077980;28;47887;-59
2022/04/23 03:24:10;;;;;;;;;11.00;9.50;;;;;21.19;35.93;99262.38;5077806;28;45352;-58
2022/04/23 03:26:36;;;;;;;;;12.00;9.00;;;;;21.17;36.03;99259.88;5078220;28;45379;-58
2022/04/23 03:29:03;;;;;;;;;12.25;10.00;;;;;21.17;35.87;99254.59;5078199;28;45374;-58
2022/04/23 03:31:29;;;;;;;;;9.75;8.25;;;;;21.18;36.52;99256.28;5077837;28;46102;-58
2022/04/23 03:33:54;;;;;;;;;10.00;10.00;;;;;21.18;35.99;99253.66;5077698;28;45308;-59
2022/04/23 03:36:19;;;;;;;;;11.50;10.75;;;;;21.17;36.18;99251.97;5077956;28;45245;-58
2022/04/23 03:38:45;;;;;;;;;10.25;8.50;;;;;21.18;36.00;99264.19;5077814;28;45542;-58
2022/04/23 03:41:10;;;;;;;;;13.33;13.33;;;;;21.16;35.73;99245.03;5077509;28;50079;-57
2022/04/23 03:43:35;;;;;;;;;13.00;13.00;;;;;21.12;36.24;99240.97;5078078;28;45162;-56
2022/04/23 03:46:00;;;;;;;;;14.00;12.00;;;;;21.09;36.15;99233.34;5077715;28;45286;-59
2022/04/23 03:48:26;;;;;;;;;10.75;10.75;;;;;21.07;36.43;99240.53;5077704;28;45468;-56
2022/04/23 03:50:51;;;;;;;;;12.00;11.00;;;;;21.03;35.87;99239.09;5077216;28;45272;-58
2022/04/23 03:53:16;;;;;;;;;12.00;11.00;;;;;20.99;36.07;99242.00;5077450;28;45251;-57
2022/04/23 03:55:42;;;;;;;;;11.50;11.00;;;;;21.00;36.40;99242.84;5076384;28;45380;-58
2022/04/23 03:58:08;;;;;;;;;15.00;13.00;;;;;20.96;36.15;99231.72;5078017;28;45271;-57
2022/04/23 04:00:34;;;;;;;;;15.00;14.00;;;;;20.96;36.02;99236.97;5059186;28;48321;-57
2022/04/23 04:02:59;;;;;;;;;14.25;13.50;;;;;20.95;36.08;99240.59;5077294;28;45350;-57
2022/04/23 04:05:25;;;;;;;;;11.00;11.00;;;;;20.93;36.30;99225.88;5077343;28;45351;-57
2022/04/23 04:07:51;;;;;;;;;12.25;12.00;;;;;20.92;35.75;99229.47;5077572;28;45382;-57
2022/04/23 04:10:18;;;;;;;;;14.00;14.00;;;;;20.90;35.89;99224.31;5076656;28;46076;-58
2022/04/23 04:12:44;;;;;;;;;14.75;12.75;;;;;20.89;36.24;99230.53;5076933;28;45900;-58
2022/04/23 04:15:11;;;;;;;;;16.50;13.75;;;;;20.87;36.19;99226.38;5077710;27;45303;-58
2022/04/23 04:17:38;;;;;;;;;14.25;14.25;;;;;20.84;36.35;99223.00;5077787;28;45193;-61
2022/04/23 04:20:07;;;;;;;;;15.75;12.75;;;;;20.81;35.89;99218.03;5077036;28;46418;-57
2022/04/23 04:22:33;;;;;;;;;16.75;13.00;;;;;20.81;36.45;99222.44;5077146;27;45323;-59
2022/04/23 04:25:03;;;;;;;;;13.00;12.00;;;;;20.77;36.27;99219.22;5077090;28;45434;-56
2022/04/23 04:27:29;;;;;;;;;13.75;13.75;;;;;20.79;35.86;99214.69;5077212;28;45517;-58
2022/04/23 04:29:54;;;;;;;;;14.75;13.50;;;;;20.77;36.06;99215.78;5076843;28;45272;-57
2022/04/23 04:32:20;;;;;;;;;13.50;13.50;;;;;20.78;36.06;99206.91;5076931;28;45326;-57
2022/04/23 04:34:46;;;;;;;;;13.25;13.25;;;;;20.74;35.95;99210.72;5076906;28;45496;-57
2022/04/23 04:37:12;;;;;;;;;17.00;14.75;;;;;20.73;36.42;99216.94;5077347;28;45468;-59
2022/04/23 04:39:40;;;;;;;;;14.75;14.75;;;;;20.76;36.26;99222.00;5077063;28;45308;-61
2022/04/23 04:42:06;;;;;;;;;17.25;13.25;;;;;20.74;36.29;99213.34;5076657;28;45816;-61
2022/04/23 04:44:32;;;;;;;;;13.75;13.75;;;;;20.74;35.89;99208.09;5076865;28;45437;-58
2022/04/23 04:46:57;;;;;;;;;15.50;14.25;;;;;20.72;36.36;99216.13;5077171;28;45614;-57
2022/04/23 04:49:23;;;;;;;;;17.25;13.00;;;;;20.73;36.42;99204.59;5076262;28;45950;-58
2022/04/23 04:51:49;;;;;;;;;14.00;13.50;;;;;20.71;35.87;99206.53;5076590;28;45343;-58
2022/04/23 04:54:17;;;;;;;;;12.00;12.00;;;;;20.71;35.96;99209.19;5076705;28;45429;-61
2022/04/23 04:56:46;;;;;;;;;15.00;14.75;;;;;20.69;36.36;99201.38;5077280;28;45319;-58
2022/04/23 04:59:11;;;;;;;;;15.25;14.25;;;;;20.71;36.35;99211.81;5059017;28;46043;-56
2022/04/23 05:01:37;;;;;;;;;12.00;9.50;;;;;20.69;36.32;99203.19;5075803;28;45464;-58
2022/04/23 05:04:02;;;;;;;;;15.75;13.50;;;;;20.69;36.30;99214.56;5079319;28;45228;-59
2022/04/23 05:06:28;;;;;;;;;15.25;14.75;;;;;20.68;36.31;99212.06;5080246;28;45349;-57
2022/04/23 05:08:53;;;;;;;;;18.25;14.50;;;;;20.68;35.97;99218.13;5080061;28;46157;-60
2022/04/23 05:11:19;;;;;;;;;12.75;12.75;;;;;20.67;35.82;99216.47;5079443;28;45478;-58
2022/04/23 05:13:44;;;;;;;;;16.50;16.50;;;;;20.67;36.32;99218.28;5080218;27;45327;-59
2022/04/23 05:16:09;;;;;;;;;13.50;13.25;;;;;20.65;36.18;99213.16;5080667;27;45567;-62
2022/04/23 05:18:35;;;;;;;;;13.50;13.50;;;;;20.63;36.40;99204.53;5079795;28;46202;-57
2022/04/23 05:21:01;;;;;;;;;14.25;14.25;;;;;20.63;36.40;99204.53;5078998;27;55560;-56
2022/04/23 05:23:26;;;;;;;;;18.25;17.50;;;;;20.62;35.74;99209.91;5079455;28;45371;-54
2022/04/23 05:25:52;;;;;;;;;16.25;13.25;;;;;20.59;36.07;99204.91;5079993;28;45294;-58
2022/04/23 05:28:17;;;;;;;;;17.25;16.00;;;;;20.57;36.73;99210.28;5079685;28;46280;-58
2022/04/23 05:30:44;;;;;;;;;84.67;81.67;;;;;20.55;36.88;99206.97;5080053;28;45225;-57
2022/04/23 05:33:10;;;;;;;;;188.00;179.00;;;;;20.55;36.86;99206.97;5079393;27;45429;-56
2022/04/23 05:35:35;;;;;;;;;266.67;246.33;;;;;20.55;36.77;99206.97;5079192;27;45506;-57
2022/04/23 05:38:01;;;;;;;;;254.00;239.75;;;;;20.54;37.10;99205.28;5078846;28;45345;-57
2022/04/23 05:40:26;;;;;;;;;234.50;222.50;;;;;20.52;37.17;99196.69;5079537;28;45405;-58
2022/04/23 05:42:55;;;;;;;;;220.50;210.75;;;;;20.51;36.79;99197.63;5079505;28;45316;-58
2022/04/23 05:45:22;;;;;;;;;231.00;218.25;;;;;20.52;36.65;99196.69;5079703;28;45432;-56
2022/04/23 05:47:47;;;;;;;;;215.50;205.50;;;;;20.53;36.82;99195.72;5079246;27;45360;-63
2022/04/23 05:50:13;;;;;;;;;188.00;180.00;;;;;20.54;37.24;99197.41;5079502;27;45295;-57
2022/04/23 05:52:38;;;;;;;;;187.67;178.00;;;;;20.52;36.76;99194.03;5079152;28;47308;-62
2022/04/23 05:55:05;;;;;;;;;159.50;159.50;;;;;20.51;37.16;99193.19;5079626;28;45265;-57
2022/04/23 05:57:31;;;;;;;;;160.00;152.75;;;;;20.54;37.27;99189.50;5079108;28;46487;-57
2022/04/23 05:59:57;;;;;;;;;147.75;141.00;;;;;20.54;37.16;99192.94;5078784;28;45430;-57
2022/04/23 06:02:22;;;;;;;;;138.25;134.25;;;;;20.52;37.05;99194.88;5079141;28;45324;-59
2022/04/23 06:04:49;;;;;;;;;143.33;138.00;;;;;20.57;37.06;99197.13;5078844;27;45489;-57
2022/04/23 06:07:15;;;;;;;;;121.25;118.25;;;;;20.58;36.83;99206.69;5077071;28;47297;-56
2022/04/23 06:09:40;;;;;;;;;115.50;109.50;;;;;20.58;36.72;99219.84;5078547;28;45403;-58
2022/04/23 06:12:06;;;;;;;;;111.00;102.50;;;;;20.55;36.57;99212.22;5060807;28;45340;-57
2022/04/23 06:14:31;;;;;;;;;114.50;108.75;;;;;20.54;36.46;99210.56;5079325;28;45502;-57
2022/04/23 06:16:57;;;;;;;;;110.33;103.33;;;;;20.54;36.57;99210.56;5077818;27;45695;-57
2022/04/23 06:19:22;;;;;;;;;97.33;92.67;;;;;20.54;36.72;99207.91;5077468;27;45568;-58
2022/04/23 06:21:47;;;;;;;;;99.67;97.33;;;;;20.50;37.04;99220.50;5059632;28;45524;-57
2022/04/23 06:24:13;;;;;;;;;91.00;86.33;;;;;20.53;36.69;99227.31;5078593;28;49935;-58
2022/04/23 06:26:38;;;;;;;;;84.00;82.00;;;;;20.51;36.88;99216.88;5078529;28;45999;-59
2022/04/23 06:29:03;;;;;;;;;85.50;81.00;;;;;20.50;36.57;99228.41;5078536;28;45330;-59
2022/04/23 06:31:29;;;;;;;;;83.33;78.00;;;;;20.43;36.50;99229.00;5078788;28;45227;-59
2022/04/23 06:33:54;;;;;;;;;81.00;75.50;;;;;20.42;36.30;99228.16;5078679;27;45540;-58
2022/04/23 06:36:20;;;;;;;;;79.00;68.33;;;;;20.37;36.88;99225.91;5078766;28;45315;-57
2022/04/23 06:38:46;;;;;;;;;74.00;65.00;;;;;20.33;36.32;99219.22;5078718;28;45212;-57
2022/04/23 06:41:11;;;;;;;;;77.75;68.75;;;;;20.29;37.09;99219.56;5078859;28;45308;-58
2022/04/23 06:43:37;;;;;;;;;75.25;64.25;;;;;20.28;36.46;99225.81;5078742;27;45232;-57
2022/04/23 06:46:02;;;;;;;;;71.50;59.75;;;;;20.26;36.64;99206.69;5078278;27;47052;-54
2022/04/23 06:48:28;;;;;;;;;70.75;56.75;;;;;20.30;37.15;99202.81;5078156;27;45573;-58
2022/04/23 06:50:53;;;;;;;;;75.00;62.67;;;;;20.35;37.04;99211.19;5078539;28;45346;-58
2022/04/23 06:53:18;;;;;;;;;67.00;54.67;;;;;20.35;36.50;99216.47;5078963;27;45776;-58
2022/04/23 06:55:44;;;;;;;;;68.00;54.25;;;;;20.41;36.83;99212.50;5078353;28;45726;-58
2022/04/23 06:58:11;;;;;;;;;64.67;52.33;;;;;20.44;36.78;99222.78;5078343;28;45400;-55
2022/04/23 07:00:40;;;;;;;;;66.75;54.50;;;;;20.46;36.80;99212.94;5078334;28;45421;-58
2022/04/23 07:03:05;;;;;;;;;62.50;51.00;;;;;20.50;36.32;99222.28;5078501;27;45888;-58
2022/04/23 07:05:31;;;;;;;;;61.75;49.50;;;;;20.48;36.70;99213.66;5078027;28;46081;-55
2022/04/23 07:07:58;;;;;;;;;56.25;47.00;;;;;20.47;36.78;99217.25;5078079;28;45367;-57
2022/04/23 07:10:26;;;;;;;;;58.25;46.25;;;;;20.49;36.37;99207.44;5078242;28;45406;-56
2022/04/23 07:12:53;;;;;;;;;58.50;46.25;;;;;20.53;36.79;99208.88;5078047;28;45355;-53
2022/04/23 07:15:19;;;;;;;;;56.75;45.75;;;;;20.58;36.26;99211.13;5078236;28;46010;-57
2022/04/23 07:17:46;;;;;;;;;52.50;43.75;;;;;20.52;36.51;99200.13;5078107;28;45341;-55
2022/04/23 07:20:11;;;;;;;;;51.75;41.75;;;;;20.61;35.95;99214.34;5059961;28;45276;-55
2022/04/23 07:22:37;;;;;;;;;46.00;40.00;;;;;20.60;36.44;99212.69;5078254;28;45296;-55
2022/04/23 07:25:02;;;;;;;;;46.67;39.00;;;;;20.61;35.98;99203.81;5077291;28;50237;-56
2022/04/23 07:27:28;;;;;;;;;48.25;40.00;;;;;20.64;36.37;99206.22;5077505;27;45496;-55
2022/04/23 07:29:54;;;;;;;;;48.25;40.00;;;;;20.64;36.13;99208.00;5077215;28;45543;-55
2022/04/23 07:32:21;;;;;;;;;45.00;37.25;;;;;20.65;35.96;99207.03;5060059;28;45315;-56
2022/04/23 07:37:31;;;;;;;;;43.75;35.00;;;;;20.67;36.36;99208.56;5077775;28;46543;-57
2022/04/23 07:39:58;;;;;;;;;38.25;34.25;;;;;20.66;36.35;99212.19;5077775;28;45288;-57
2022/04/23 07:42:24;;;;;;;;;36.75;33.50;;;;;20.69;36.22;99219.81;5077947;28;45412;-57
2022/04/23 07:44:49;;;;;;;;;39.75;35.00;;;;;20.70;36.35;99215.41;5077695;28;46360;-56
2022/04/23 07:47:15;;;;;;;;;39.00;34.75;;;;;20.69;36.23;99214.56;5077564;28;45414;-57
2022/04/23 07:49:40;;;;;;;;;33.25;31.50;;;;;20.68;35.91;99207.63;5077885;28;45414;-56
2022/04/23 07:52:06;;;;;;;;;34.25;30.25;;;;;20.66;36.25;99203.44;5077759;28;45632;-56
2022/04/23 07:54:31;;;;;;;;;35.25;31.25;;;;;20.65;36.10;99201.75;5077246;27;46970;-56
2022/04/23 07:56:56;;;;;;;;;33.00;29.33;;;;;20.64;36.19;99208.84;5076855;28;56970;-56
2022/04/23 07:59:22;;;;;;;;;34.75;30.50;;;;;20.65;36.14;99199.13;5077237;28;45402;-55
2022/04/23 08:01:49;;;;;;;;;33.75;31.25;;;;;20.65;35.70;99197.34;5077961;27;45174;-56
2022/04/23 08:04:14;;;;;;;;;29.25;27.50;;;;;20.65;36.24;99196.50;5077188;28;47270;-55
2022/04/23 08:06:39;;;;;;;;;31.75;30.25;;;;;20.66;35.80;99196.41;5077147;28;45306;-56
2022/04/23 08:09:04;;;;;;;;;28.50;25.50;;;;;20.67;35.73;99192.78;5077049;28;45556;-56
2022/04/23 08:11:30;;;;;;;;;32.00;28.00;;;;;20.68;35.98;99191.81;5077139;28;45343;-56
2022/04/23 08:13:56;;;;;;;;;27.00;24.50;;;;;20.67;36.14;99187.50;5076956;28;46248;-57
2022/04/23 08:16:22;;;;;;;;;28.75;26.50;;;;;20.68;35.70;99189.19;5077363;27;45980;-57
2022/04/23 08:18:47;;;;;;;;;27.50;27.25;;;;;20.66;35.60;99185.88;5077443;28;46004;-56
2022/04/23 08:21:13;;;;;;;;;28.00;25.75;;;;;20.65;35.70;99189.47;5077345;28;45887;-56
2022/04/23 08:23:38;;;;;;;;;28.50;26.00;;;;;20.65;35.79;99184.19;5076901;28;46121;-56
2022/04/23 08:26:05;;;;;;;;;27.50;25.00;;;;;20.65;35.86;99181.56;5076844;28;45311;-58
2022/04/23 08:31:14;;;;;;;;;26.00;24.25;;;;;20.67;36.10;99174.34;5077128;28;45327;-57
2022/04/23 08:33:58;;;;;;;;;23.50;23.25;;;;;20.70;35.97;99183.81;5076774;28;46376;-57
2022/04/23 08:36:26;;;;;;;;;26.25;23.00;;;;;20.73;36.13;99180.09;5077148;28;45829;-57
2022/04/23 08:38:51;;;;;;;;;24.75;22.50;;;;;20.74;36.08;99179.13;5075966;28;45315;-57
2022/04/23 08:41:17;;;;;;;;;26.00;24.00;;;;;20.70;36.00;99168.00;5076890;28;45174;-57
2022/04/23 08:43:42;;;;;;;;;23.25;21.25;;;;;20.73;36.12;99177.44;5076459;28;47179;-57
2022/04/23 08:46:09;;;;;;;;;21.25;20.25;;;;;20.76;36.14;99180.69;5076684;28;45443;-57
2022/04/23 08:48:38;;;;;;;;;23.50;21.50;;;;;20.76;36.01;99183.31;5058549;28;45414;-57
2022/04/23 08:51:07;;;;;;;;;24.50;21.75;;;;;20.75;36.15;99172.94;5076873;28;45563;-57
2022/04/23 08:53:40;;;;;;;;;23.00;21.75;;;;;20.76;35.92;99182.50;5076418;27;46183;-57
2022/04/23 08:56:06;;;;;;;;;23.50;22.75;;;;;20.74;36.16;99177.34;5076409;28;46016;-63
2022/04/23 08:58:31;;;;;;;;;22.25;21.25;;;;;20.77;36.50;99178.91;5076689;27;45342;-57
2022/04/23 09:00:57;;;;;;;;;22.25;20.75;;;;;20.77;36.83;99181.53;5076815;28;45524;-57
2022/04/23 09:03:22;;;;;;;;;27.50;26.50;;;;;20.79;37.51;99183.06;5076581;28;46332;-57
2022/04/23 09:05:52;;;;;;;;;30.00;29.00;;;;;20.76;38.12;99171.97;5076451;28;45655;-57
2022/04/23 09:08:17;;;;;;;;;32.50;28.00;;;;;20.77;37.67;99184.19;5076359;28;45308;-57
2022/04/23 09:10:47;;;;;;;;;25.75;23.75;;;;;20.75;38.35;99180.81;5058215;28;45366;-57
2022/04/23 09:13:31;;;;;;;;;26.50;24.00;;;;;20.76;38.06;99188.59;5076064;28;46099;-57
2022/04/23 09:24:14;;;;;;;;;24.75;23.75;;;;;20.72;38.06;99181.91;5076118;28;45775;-57
2022/04/23 09:26:40;;;;;;;;;22.50;19.75;;;;;20.72;38.01;99179.25;5076091;28;45458;-57
2022/04/23 09:29:15;;;;;;;;;23.00;22.00;;;;;20.75;38.22;99175.56;5076335;28;45384;-57
2022/04/23 09:31:41;;;;;;;;;23.00;20.50;;;;;20.76;38.49;99185.97;5076527;28;45437;-57
2022/04/23 09:34:17;;;;;;;;;22.25;22.25;;;;;20.77;38.73;99174.47;5076062;27;47031;-57
2022/04/23 09:36:47;;;;;;;;;24.25;23.75;;;;;20.80;38.81;99178.63;5075081;28;45990;-56
2022/04/23 09:39:12;;;;;;;;;26.50;22.50;;;;;20.80;38.17;99174.22;5057745;28;45435;-56
2022/04/23 09:41:37;;;;;;;;;24.75;23.25;;;;;20.80;37.95;99178.63;5075893;28;49134;-57
2022/04/23 09:44:09;;;;;;;;;21.25;20.50;;;;;20.79;38.35;99172.53;5076000;28;46034;-57
2022/04/23 09:46:48;;;;;;;;;20.50;20.50;;;;;20.78;38.44;99173.50;5057760;28;45277;-57
2022/04/23 09:49:23;;;;;;;;;19.75;19.75;;;;;20.80;38.31;99173.38;5059055;28;45353;-57
2022/04/23 09:52:00;;;;;;;;;20.25;19.00;;;;;20.83;38.31;99178.38;5079534;27;45548;-58
2022/04/23 09:54:27;;;;;;;;;24.00;21.00;;;;;20.81;38.73;99164.50;5079476;28;47117;-57
2022/04/23 09:56:53;;;;;;;;;20.25;20.25;;;;;20.83;38.30;99171.34;5079567;27;45882;-57
2022/04/23 09:59:18;;;;;;;;;22.75;21.25;;;;;20.84;38.22;99172.97;5079211;27;45264;-57
2022/04/23 10:01:46;;;;;;;;;24.00;21.75;;;;;20.83;38.24;99173.13;5061005;28;45296;-57
2022/04/23 10:04:13;;;;;;;;;22.25;21.25;;;;;20.85;38.49;99181.75;5078741;27;45633;-57
2022/04/23 10:06:41;;;;;;;;;19.75;18.75;;;;;20.84;38.20;99170.34;5078877;28;46007;-57
2022/04/23 10:09:09;;;;;;;;;22.50;19.50;;;;;20.82;38.33;99172.31;5079240;28;45377;-57
2022/04/23 10:11:41;;;;;;;;;26.00;21.50;;;;;20.84;37.86;99170.34;5060830;28;45684;-57
2022/04/23 10:14:10;;;;;;;;;21.50;20.00;;;;;20.84;38.14;99170.34;5078771;28;46388;-57
2022/04/23 10:16:36;;;;;;;;;20.25;19.25;;;;;20.83;38.24;99167.84;5060915;28;45751;-57
2022/04/23 10:19:01;;;;;;;;;19.75;18.25;;;;;20.83;38.17;99158.19;5079052;28;45329;-57
2022/04/23 10:21:29;;;;;;;;;17.25;17.25;;;;;20.85;37.92;99176.47;5079554;27;45358;-57
2022/04/23 10:24:13;;;;;;;;;17.25;16.50;;;;;20.86;37.91;99167.59;5078987;28;46202;-57
2022/04/23 10:26:46;;;;;;;;;16.75;16.75;;;;;20.84;38.05;99162.44;5078654;28;46034;-57
2022/04/23 10:29:14;;;;;;;;;19.00;18.50;;;;;20.85;38.10;99160.66;5078852;28;45278;-58
2022/04/23 10:31:41;;;;;;;;;21.50;21.00;;;;;20.85;38.01;99161.50;5078939;28;45378;-58
2022/04/23 10:34:32;;;;;;;;;19.00;19.00;;;;;20.87;37.93;99157.91;5060179;28;47069;-57
2022/04/23 10:37:14;;;;;;;;;17.50;17.50;;;;;20.89;38.17;99155.97;5078667;27;45336;-57
2022/04/23 10:39:40;;;;;;;;;22.25;19.75;;;;;20.89;38.20;99151.53;5078685;27;45307;-58
2022/04/23 10:42:05;;;;;;;;;19.00;19.00;;;;;20.88;38.11;99155.16;5078824;27;45221;-58
2022/04/23 10:44:31;;;;;;;;;18.75;17.00;;;;;20.88;38.08;99141.13;5078414;28;46003;-57
2022/04/23 10:46:58;;;;;;;;;19.00;18.00;;;;;20.93;37.45;99150.31;5078609;27;45323;-58
2022/04/23 10:49:25;;;;;;;;;23.00;17.00;;;;;20.94;38.08;99146.72;5078544;27;45492;-57
2022/04/23 10:51:58;;;;;;;;;19.25;17.00;;;;;20.94;37.83;99141.47;5078676;27;45327;-57
2022/04/23 10:54:44;;;;;;;;;21.75;19.00;;;;;20.97;38.04;99153.53;5078353;28;45747;-58
2022/04/23 10:57:13;;;;;;;;;20.00;20.00;;;;;20.97;38.01;99153.53;5078325;28;45442;-58
2022/04/23 10:59:45;;;;;;;;;21.75;19.00;;;;;20.97;37.57;99148.25;5078312;27;45343;-58
2022/04/23 11:02:19;;;;;;;;;16.50;16.50;;;;;20.97;37.99;99148.25;5077770;28;45491;-61
2022/04/23 11:12:14;;;;;;;;;20.00;18.25;;;;;20.97;37.74;99143.84;5059695;28;46735;-58
2022/04/23 11:13:24;;;;;;;;;16.75;16.75;;;;;21.00;37.98;99145.38;5078255;27;45359;-57
2022/04/23 11:16:19;;;;;;;;;21.00;19.00;;;;;20.99;37.79;99134.03;5077844;28;46511;-57
2022/04/23 11:18:46;;;;;;;;;17.25;16.00;;;;;21.01;37.73;99139.97;5077888;28;45994;-59
2022/04/23 11:21:31;;;;;;;;;18.75;15.75;;;;;21.03;37.25;99137.22;5077921;28;45335;-57
2022/04/23 11:23:59;;;;;;;;;17.25;16.25;;;;;21.04;37.43;99145.94;5078634;28;45339;-56
2022/04/23 11:26:44;;;;;;;;;12.75;12.75;;;;;21.00;37.10;99140.09;5077851;28;45278;-59
2022/04/23 11:29:10;;;;;;;;;15.50;14.00;;;;;20.99;37.48;99128.75;5077808;28;45856;-56
2022/04/23 11:31:36;;;;;;;;;15.50;14.00;;;;;21.00;37.29;99130.41;5077956;28;45308;-58
2022/04/23 11:34:02;;;;;;;;;16.50;13.25;;;;;21.03;37.01;99131.09;5078249;28;45424;-60
2022/04/23 11:36:36;;;;;;;;;14.00;12.25;;;;;21.01;37.27;99124.16;5078008;28;46323;-58
2022/04/23 11:39:10;;;;;;;;;11.00;11.00;;;;;21.02;37.08;99127.66;5077994;28;45973;-56